Aérodrome :
LOGIN :

S'inscrire | Disclaimer

   EN    FR    IT 

 










Légende :    VFR   VFR Marginal   IFR   IFR Intensif   IFR Très Intensif
Visi : 
Plafond : 
>= 8 km
>= 3000ft
5 à 8 km
1000 à 3000 ft
1500m à 5 km
500 à 1000 ft
800 à 1500m
200 à 500 ft
< 800m
< 200 ft
Symboles :   Orages  Brouillard  Fortes neiges  Fortes précipitations  Vent > 20 kt
SIGMETs :   Divers  Orages  Givrage  Turbulence  Onde Orograph.  Cendres Volcan.






- Altitude de l'aérodrome : 291 ft
- Code IATA : ORY


LFPO - Paris-Orly

DERNIER METAR :
  • 041430Z VRB03KT 9999 FEW028 BKN049 20/14 Q1012 TEMPO 4000 -SHRA SCT035CB

METARs EXPIRÉS :
  • 041400Z 07004KT 010V130 9999 FEW025 BKN060 BKN100 20/14 Q1012 TEMPO 4000 -SHRA SCT035CB
  • 041330Z 07005KT 020V130 9999 FEW020 BKN100 19/14 Q1012 TEMPO 4000 -SHRA SCT035CB
  • 041300Z 12004KT 070V150 9999 FEW030 FEW040TCU BKN070 18/16 Q1012 TEMPO 4000 SHRA SCT035CB
  • 041230Z 08004KT 050V120 6000 -SHRA FEW036 SCT040TCU BKN090 17/14 Q1012 TEMPO 4000 SCT035CB
  • 041200Z VRB03KT 8000 -SHRA FEW038 SCT040TCU BKN066 18/13 Q1013 TEMPO 4000 SCT035CB

TAF TAF LFPO
Valide du 04 à 12h jusqu'au 05 à 18h UTC


041100Z 0412/0518 10005KT 9999 BKN035
TEMPO 0412/0419 4000 -SHRA SCT035CB
PROB30
TEMPO 0503/0506 4000 -RA BKN050
ATIS : +33 1 49 75 65 80



MET'MAP, la Météo Aéronautique d'un coup d'oeil ! - Copyright ORBIFLY Décembre 2007 - Disclaimer

ORBIFLY MET'MAP TEAM :

Programmation & Développement : Alexandra Zaïnal
Sur une idée originale de : Baudouin d'Aumeries
Assistance à la programmation : Marc-Olivier Méhu
Soutien technique & logistique : Manuel Goepfert

Contact : metmap@orbifly.com




SOURCES & CREDITS :

   NOAA